sensor_id;sensor_type;location;lat;lon;timestamp;P1;durP1;ratioP1;P2;durP2;ratioP2
75044;SDS011;63614;56.026;35.960;2023-03-12T00:00:38;5.15;;;3.20;;
75044;SDS011;63614;56.026;35.960;2023-03-12T00:03:05;5.03;;;3.30;;
75044;SDS011;63614;56.026;35.960;2023-03-12T00:05:31;4.25;;;2.90;;
75044;SDS011;63614;56.026;35.960;2023-03-12T00:07:57;4.47;;;3.40;;
75044;SDS011;63614;56.026;35.960;2023-03-12T00:10:24;5.38;;;3.10;;
75044;SDS011;63614;56.026;35.960;2023-03-12T00:12:51;4.70;;;3.00;;
75044;SDS011;63614;56.026;35.960;2023-03-12T00:15:17;4.25;;;2.70;;
75044;SDS011;63614;56.026;35.960;2023-03-12T00:17:43;4.85;;;3.00;;
75044;SDS011;63614;56.026;35.960;2023-03-12T00:20:09;4.25;;;2.55;;
75044;SDS011;63614;56.026;35.960;2023-03-12T00:22:36;6.55;;;3.28;;
75044;SDS011;63614;56.026;35.960;2023-03-12T00:25:02;3.80;;;2.80;;
75044;SDS011;63614;56.026;35.960;2023-03-12T00:27:29;5.03;;;2.70;;
75044;SDS011;63614;56.026;35.960;2023-03-12T00:29:54;4.65;;;3.00;;
75044;SDS011;63614;56.026;35.960;2023-03-12T00:32:20;4.78;;;2.92;;
75044;SDS011;63614;56.026;35.960;2023-03-12T00:34:53;4.22;;;2.60;;
75044;SDS011;63614;56.026;35.960;2023-03-12T00:37:20;4.25;;;2.67;;
75044;SDS011;63614;56.026;35.960;2023-03-12T00:39:46;4.30;;;3.03;;
75044;SDS011;63614;56.026;35.960;2023-03-12T00:42:13;5.05;;;3.05;;
75044;SDS011;63614;56.026;35.960;2023-03-12T00:44:38;4.72;;;2.95;;
75044;SDS011;63614;56.026;35.960;2023-03-12T00:47:05;5.75;;;3.25;;
75044;SDS011;63614;56.026;35.960;2023-03-12T00:49:31;5.75;;;3.40;;
75044;SDS011;63614;56.026;35.960;2023-03-12T00:51:56;5.28;;;3.33;;
75044;SDS011;63614;56.026;35.960;2023-03-12T00:54:22;5.60;;;3.20;;
75044;SDS011;63614;56.026;35.960;2023-03-12T00:56:48;5.70;;;3.30;;
75044;SDS011;63614;56.026;35.960;2023-03-12T00:59:14;5.50;;;3.38;;
75044;SDS011;63614;56.026;35.960;2023-03-12T01:01:40;5.25;;;3.35;;
75044;SDS011;63614;56.026;35.960;2023-03-12T01:04:07;7.32;;;3.78;;
75044;SDS011;63614;56.026;35.960;2023-03-12T01:06:33;6.22;;;3.75;;
75044;SDS011;63614;56.026;35.960;2023-03-12T01:09:02;5.60;;;3.72;;
75044;SDS011;63614;56.026;35.960;2023-03-12T01:11:29;6.10;;;3.80;;
75044;SDS011;63614;56.026;35.960;2023-03-12T01:13:57;4.55;;;3.60;;
75044;SDS011;63614;56.026;35.960;2023-03-12T01:16:25;7.15;;;4.10;;
75044;SDS011;63614;56.026;35.960;2023-03-12T01:18:55;8.27;;;4.40;;
75044;SDS011;63614;56.026;35.960;2023-03-12T01:21:22;6.88;;;4.10;;
75044;SDS011;63614;56.026;35.960;2023-03-12T01:23:49;8.10;;;4.45;;
75044;SDS011;63614;56.026;35.960;2023-03-12T01:26:15;5.78;;;4.20;;
75044;SDS011;63614;56.026;35.960;2023-03-12T01:28:41;6.80;;;4.07;;
75044;SDS011;63614;56.026;35.960;2023-03-12T01:31:08;8.52;;;4.55;;
75044;SDS011;63614;56.026;35.960;2023-03-12T01:33:34;5.75;;;4.22;;
75044;SDS011;63614;56.026;35.960;2023-03-12T01:36:00;6.95;;;4.30;;
75044;SDS011;63614;56.026;35.960;2023-03-12T01:38:26;6.68;;;4.50;;
75044;SDS011;63614;56.026;35.960;2023-03-12T01:40:52;7.45;;;4.85;;
75044;SDS011;63614;56.026;35.960;2023-03-12T01:48:24;9.95;;;5.35;;
75044;SDS011;63614;56.026;35.960;2023-03-12T01:50:52;10.98;;;5.03;;
75044;SDS011;63614;56.026;35.960;2023-03-12T01:53:19;9.07;;;5.72;;
75044;SDS011;63614;56.026;35.960;2023-03-12T01:55:46;8.80;;;5.45;;
75044;SDS011;63614;56.026;35.960;2023-03-12T01:58:12;9.10;;;5.95;;
75044;SDS011;63614;56.026;35.960;2023-03-12T02:00:39;8.43;;;4.93;;
75044;SDS011;63614;56.026;35.960;2023-03-12T02:03:06;9.30;;;6.07;;
75044;SDS011;63614;56.026;35.960;2023-03-12T02:08:20;8.05;;;5.07;;
75044;SDS011;63614;56.026;35.960;2023-03-12T02:10:49;10.55;;;6.28;;
75044;SDS011;63614;56.026;35.960;2023-03-12T02:13:15;10.75;;;6.20;;
75044;SDS011;63614;56.026;35.960;2023-03-12T02:15:44;9.75;;;5.72;;
75044;SDS011;63614;56.026;35.960;2023-03-12T02:18:11;8.38;;;5.60;;
75044;SDS011;63614;56.026;35.960;2023-03-12T02:25:49;10.32;;;5.50;;
75044;SDS011;63614;56.026;35.960;2023-03-12T02:28:19;11.18;;;6.00;;
75044;SDS011;63614;56.026;35.960;2023-03-12T02:30:49;13.07;;;6.18;;
75044;SDS011;63614;56.026;35.960;2023-03-12T02:33:18;8.95;;;5.38;;
75044;SDS011;63614;56.026;35.960;2023-03-12T02:35:45;9.40;;;5.72;;
75044;SDS011;63614;56.026;35.960;2023-03-12T02:41:23;8.52;;;5.45;;
75044;SDS011;63614;56.026;35.960;2023-03-12T02:44:03;10.00;;;6.15;;
75044;SDS011;63614;56.026;35.960;2023-03-12T02:46:35;11.43;;;6.10;;
75044;SDS011;63614;56.026;35.960;2023-03-12T02:49:05;9.43;;;6.18;;
75044;SDS011;63614;56.026;35.960;2023-03-12T02:51:30;15.60;;;6.78;;
75044;SDS011;63614;56.026;35.960;2023-03-12T02:53:56;10.10;;;6.88;;
75044;SDS011;63614;56.026;35.960;2023-03-12T02:56:23;12.23;;;6.50;;
75044;SDS011;63614;56.026;35.960;2023-03-12T02:58:51;11.10;;;6.65;;
75044;SDS011;63614;56.026;35.960;2023-03-12T03:01:18;13.40;;;7.13;;
75044;SDS011;63614;56.026;35.960;2023-03-12T03:03:45;15.30;;;7.20;;
75044;SDS011;63614;56.026;35.960;2023-03-12T03:06:11;15.55;;;7.63;;
75044;SDS011;63614;56.026;35.960;2023-03-12T03:08:38;13.93;;;7.35;;
75044;SDS011;63614;56.026;35.960;2023-03-12T03:11:04;15.32;;;7.90;;
75044;SDS011;63614;56.026;35.960;2023-03-12T03:13:31;16.05;;;9.00;;
75044;SDS011;63614;56.026;35.960;2023-03-12T03:15:58;17.90;;;8.65;;
75044;SDS011;63614;56.026;35.960;2023-03-12T03:18:27;16.52;;;8.60;;
75044;SDS011;63614;56.026;35.960;2023-03-12T03:20:54;18.58;;;9.35;;
75044;SDS011;63614;56.026;35.960;2023-03-12T03:23:22;19.33;;;8.60;;
75044;SDS011;63614;56.026;35.960;2023-03-12T03:25:48;15.75;;;8.82;;
75044;SDS011;63614;56.026;35.960;2023-03-12T03:28:14;19.60;;;9.23;;
75044;SDS011;63614;56.026;35.960;2023-03-12T03:30:39;17.70;;;9.52;;
75044;SDS011;63614;56.026;35.960;2023-03-12T03:33:06;19.15;;;9.57;;
75044;SDS011;63614;56.026;35.960;2023-03-12T03:35:32;18.73;;;9.70;;
75044;SDS011;63614;56.026;35.960;2023-03-12T03:37:59;21.35;;;10.43;;
75044;SDS011;63614;56.026;35.960;2023-03-12T03:40:25;19.25;;;11.02;;
75044;SDS011;63614;56.026;35.960;2023-03-12T03:42:51;22.23;;;10.65;;
75044;SDS011;63614;56.026;35.960;2023-03-12T03:45:17;26.75;;;11.80;;
75044;SDS011;63614;56.026;35.960;2023-03-12T03:47:44;21.48;;;11.40;;
75044;SDS011;63614;56.026;35.960;2023-03-12T03:50:11;20.88;;;11.50;;
75044;SDS011;63614;56.026;35.960;2023-03-12T03:52:37;24.15;;;11.27;;
75044;SDS011;63614;56.026;35.960;2023-03-12T03:55:03;22.00;;;11.75;;
75044;SDS011;63614;56.026;35.960;2023-03-12T03:57:30;31.38;;;12.63;;
75044;SDS011;63614;56.026;35.960;2023-03-12T03:59:56;24.13;;;11.52;;
75044;SDS011;63614;56.026;35.960;2023-03-12T04:02:25;23.27;;;11.43;;
75044;SDS011;63614;56.026;35.960;2023-03-12T04:04:55;23.65;;;12.05;;
75044;SDS011;63614;56.026;35.960;2023-03-12T04:07:24;24.65;;;11.65;;
75044;SDS011;63614;56.026;35.960;2023-03-12T04:09:50;21.23;;;11.23;;
75044;SDS011;63614;56.026;35.960;2023-03-12T04:12:16;21.05;;;10.38;;
75044;SDS011;63614;56.026;35.960;2023-03-12T04:14:42;19.83;;;10.40;;
75044;SDS011;63614;56.026;35.960;2023-03-12T04:17:09;18.75;;;10.45;;
75044;SDS011;63614;56.026;35.960;2023-03-12T04:19:35;19.48;;;10.43;;
75044;SDS011;63614;56.026;35.960;2023-03-12T04:22:03;18.13;;;10.15;;
75044;SDS011;63614;56.026;35.960;2023-03-12T04:24:29;18.92;;;9.88;;
75044;SDS011;63614;56.026;35.960;2023-03-12T04:26:55;21.73;;;9.77;;
75044;SDS011;63614;56.026;35.960;2023-03-12T04:29:23;18.00;;;9.23;;
75044;SDS011;63614;56.026;35.960;2023-03-12T04:31:50;16.90;;;9.27;;
75044;SDS011;63614;56.026;35.960;2023-03-12T04:34:17;15.85;;;9.48;;
75044;SDS011;63614;56.026;35.960;2023-03-12T04:36:45;16.15;;;9.07;;
75044;SDS011;63614;56.026;35.960;2023-03-12T04:39:12;16.60;;;9.73;;
75044;SDS011;63614;56.026;35.960;2023-03-12T04:41:41;14.57;;;8.52;;
75044;SDS011;63614;56.026;35.960;2023-03-12T04:44:10;14.40;;;9.18;;
75044;SDS011;63614;56.026;35.960;2023-03-12T04:46:37;13.15;;;8.63;;
75044;SDS011;63614;56.026;35.960;2023-03-12T04:49:04;13.57;;;8.05;;
75044;SDS011;63614;56.026;35.960;2023-03-12T04:51:32;15.70;;;8.70;;
75044;SDS011;63614;56.026;35.960;2023-03-12T04:54:00;13.07;;;8.32;;
75044;SDS011;63614;56.026;35.960;2023-03-12T04:56:26;15.38;;;8.75;;
75044;SDS011;63614;56.026;35.960;2023-03-12T04:58:52;14.70;;;8.80;;
75044;SDS011;63614;56.026;35.960;2023-03-12T05:01:22;14.10;;;8.25;;
75044;SDS011;63614;56.026;35.960;2023-03-12T05:03:48;16.50;;;8.70;;
75044;SDS011;63614;56.026;35.960;2023-03-12T05:06:15;14.77;;;8.32;;
75044;SDS011;63614;56.026;35.960;2023-03-12T05:08:40;14.43;;;8.02;;
75044;SDS011;63614;56.026;35.960;2023-03-12T05:11:06;13.13;;;7.22;;
75044;SDS011;63614;56.026;35.960;2023-03-12T05:13:33;13.55;;;7.45;;
75044;SDS011;63614;56.026;35.960;2023-03-12T05:15:59;12.55;;;8.40;;
75044;SDS011;63614;56.026;35.960;2023-03-12T05:18:25;14.15;;;7.38;;
75044;SDS011;63614;56.026;35.960;2023-03-12T05:21:02;14.13;;;8.57;;
75044;SDS011;63614;56.026;35.960;2023-03-12T05:23:33;12.57;;;7.93;;
75044;SDS011;63614;56.026;35.960;2023-03-12T05:26:00;13.68;;;7.85;;
75044;SDS011;63614;56.026;35.960;2023-03-12T05:28:27;11.90;;;7.60;;
75044;SDS011;63614;56.026;35.960;2023-03-12T05:30:56;13.70;;;8.07;;
75044;SDS011;63614;56.026;35.960;2023-03-12T05:33:23;13.20;;;8.15;;
75044;SDS011;63614;56.026;35.960;2023-03-12T05:35:51;16.40;;;8.10;;
75044;SDS011;63614;56.026;35.960;2023-03-12T05:38:17;13.55;;;7.70;;
75044;SDS011;63614;56.026;35.960;2023-03-12T05:40:49;10.18;;;7.05;;
75044;SDS011;63614;56.026;35.960;2023-03-12T05:43:17;16.05;;;7.53;;
75044;SDS011;63614;56.026;35.960;2023-03-12T05:45:43;11.52;;;6.97;;
75044;SDS011;63614;56.026;35.960;2023-03-12T05:48:09;14.18;;;7.68;;
75044;SDS011;63614;56.026;35.960;2023-03-12T05:50:34;12.80;;;7.03;;
75044;SDS011;63614;56.026;35.960;2023-03-12T05:53:00;9.00;;;6.40;;
75044;SDS011;63614;56.026;35.960;2023-03-12T05:55:26;9.60;;;6.57;;
75044;SDS011;63614;56.026;35.960;2023-03-12T05:57:52;9.07;;;5.93;;
75044;SDS011;63614;56.026;35.960;2023-03-12T06:00:19;7.38;;;5.30;;
75044;SDS011;63614;56.026;35.960;2023-03-12T06:02:52;11.63;;;5.63;;
75044;SDS011;63614;56.026;35.960;2023-03-12T06:05:18;8.00;;;5.55;;
75044;SDS011;63614;56.026;35.960;2023-03-12T06:07:44;8.35;;;5.50;;
75044;SDS011;63614;56.026;35.960;2023-03-12T06:10:10;6.82;;;5.25;;
75044;SDS011;63614;56.026;35.960;2023-03-12T06:12:36;9.10;;;5.70;;
75044;SDS011;63614;56.026;35.960;2023-03-12T06:15:01;8.57;;;5.55;;
75044;SDS011;63614;56.026;35.960;2023-03-12T06:17:29;8.63;;;5.90;;
75044;SDS011;63614;56.026;35.960;2023-03-12T06:19:56;9.35;;;6.10;;
75044;SDS011;63614;56.026;35.960;2023-03-12T06:22:23;9.07;;;6.13;;
75044;SDS011;63614;56.026;35.960;2023-03-12T06:24:49;7.78;;;4.95;;
75044;SDS011;63614;56.026;35.960;2023-03-12T06:27:16;5.53;;;3.80;;
75044;SDS011;63614;56.026;35.960;2023-03-12T06:29:42;6.43;;;3.83;;
75044;SDS011;63614;56.026;35.960;2023-03-12T06:32:08;5.75;;;3.97;;
75044;SDS011;63614;56.026;35.960;2023-03-12T06:34:33;6.32;;;4.15;;
75044;SDS011;63614;56.026;35.960;2023-03-12T06:36:59;6.50;;;3.83;;
75044;SDS011;63614;56.026;35.960;2023-03-12T06:39:25;5.68;;;3.47;;
75044;SDS011;63614;56.026;35.960;2023-03-12T06:41:51;5.82;;;3.90;;
75044;SDS011;63614;56.026;35.960;2023-03-12T06:44:16;5.68;;;4.18;;
75044;SDS011;63614;56.026;35.960;2023-03-12T06:46:42;7.45;;;4.53;;
75044;SDS011;63614;56.026;35.960;2023-03-12T06:49:09;7.00;;;5.38;;
75044;SDS011;63614;56.026;35.960;2023-03-12T06:51:35;8.98;;;6.43;;
75044;SDS011;63614;56.026;35.960;2023-03-12T06:54:01;8.60;;;5.97;;
75044;SDS011;63614;56.026;35.960;2023-03-12T06:56:27;10.77;;;6.07;;
75044;SDS011;63614;56.026;35.960;2023-03-12T06:58:53;11.70;;;6.88;;
75044;SDS011;63614;56.026;35.960;2023-03-12T07:01:20;10.98;;;6.90;;
75044;SDS011;63614;56.026;35.960;2023-03-12T07:03:46;7.63;;;5.47;;
75044;SDS011;63614;56.026;35.960;2023-03-12T07:06:16;9.35;;;5.75;;
75044;SDS011;63614;56.026;35.960;2023-03-12T07:08:44;9.00;;;4.82;;
75044;SDS011;63614;56.026;35.960;2023-03-12T07:11:11;7.85;;;4.88;;
75044;SDS011;63614;56.026;35.960;2023-03-12T07:13:38;7.65;;;4.85;;
75044;SDS011;63614;56.026;35.960;2023-03-12T07:16:04;7.45;;;4.13;;
75044;SDS011;63614;56.026;35.960;2023-03-12T07:18:30;12.32;;;4.63;;
75044;SDS011;63614;56.026;35.960;2023-03-12T07:20:56;8.13;;;5.63;;
75044;SDS011;63614;56.026;35.960;2023-03-12T07:23:21;8.60;;;5.22;;
75044;SDS011;63614;56.026;35.960;2023-03-12T07:25:47;7.55;;;5.28;;
75044;SDS011;63614;56.026;35.960;2023-03-12T07:28:13;6.68;;;4.47;;
75044;SDS011;63614;56.026;35.960;2023-03-12T07:30:40;9.50;;;4.95;;
75044;SDS011;63614;56.026;35.960;2023-03-12T07:33:07;8.60;;;3.53;;
75044;SDS011;63614;56.026;35.960;2023-03-12T07:35:35;6.15;;;3.95;;
75044;SDS011;63614;56.026;35.960;2023-03-12T07:40:28;11.90;;;4.55;;
75044;SDS011;63614;56.026;35.960;2023-03-12T07:42:55;7.63;;;3.83;;
75044;SDS011;63614;56.026;35.960;2023-03-12T07:45:21;6.18;;;2.83;;
75044;SDS011;63614;56.026;35.960;2023-03-12T07:47:48;4.38;;;2.00;;
75044;SDS011;63614;56.026;35.960;2023-03-12T07:50:13;3.30;;;1.77;;
75044;SDS011;63614;56.026;35.960;2023-03-12T07:52:40;6.28;;;1.70;;
75044;SDS011;63614;56.026;35.960;2023-03-12T07:55:06;3.42;;;1.58;;
75044;SDS011;63614;56.026;35.960;2023-03-12T07:57:32;6.07;;;1.50;;
75044;SDS011;63614;56.026;35.960;2023-03-12T07:59:58;2.67;;;1.27;;
75044;SDS011;63614;56.026;35.960;2023-03-12T08:02:24;2.45;;;1.40;;
75044;SDS011;63614;56.026;35.960;2023-03-12T08:04:49;3.22;;;1.70;;
75044;SDS011;63614;56.026;35.960;2023-03-12T08:07:15;1.50;;;0.95;;
75044;SDS011;63614;56.026;35.960;2023-03-12T08:09:41;1.70;;;0.90;;
75044;SDS011;63614;56.026;35.960;2023-03-12T08:12:07;1.60;;;0.90;;
75044;SDS011;63614;56.026;35.960;2023-03-12T08:14:33;1.50;;;1.00;;
75044;SDS011;63614;56.026;35.960;2023-03-12T08:17:00;1.70;;;1.05;;
75044;SDS011;63614;56.026;35.960;2023-03-12T08:19:27;1.27;;;0.93;;
75044;SDS011;63614;56.026;35.960;2023-03-12T08:21:53;3.45;;;0.90;;
75044;SDS011;63614;56.026;35.960;2023-03-12T08:24:19;1.50;;;0.90;;
75044;SDS011;63614;56.026;35.960;2023-03-12T08:26:45;2.47;;;1.00;;
75044;SDS011;63614;56.026;35.960;2023-03-12T08:29:11;1.30;;;0.90;;
75044;SDS011;63614;56.026;35.960;2023-03-12T08:31:37;1.13;;;0.88;;
75044;SDS011;63614;56.026;35.960;2023-03-12T08:34:03;1.55;;;1.00;;
75044;SDS011;63614;56.026;35.960;2023-03-12T08:36:29;1.30;;;0.90;;
75044;SDS011;63614;56.026;35.960;2023-03-12T08:38:54;2.17;;;1.00;;
75044;SDS011;63614;56.026;35.960;2023-03-12T08:41:20;1.58;;;1.10;;
75044;SDS011;63614;56.026;35.960;2023-03-12T08:43:46;2.00;;;1.00;;
75044;SDS011;63614;56.026;35.960;2023-03-12T08:46:12;1.92;;;1.20;;
75044;SDS011;63614;56.026;35.960;2023-03-12T08:48:37;1.42;;;1.05;;
75044;SDS011;63614;56.026;35.960;2023-03-12T08:51:05;2.00;;;1.10;;
75044;SDS011;63614;56.026;35.960;2023-03-12T08:53:32;2.47;;;1.10;;
75044;SDS011;63614;56.026;35.960;2023-03-12T08:55:59;3.72;;;1.08;;
75044;SDS011;63614;56.026;35.960;2023-03-12T08:58:26;1.40;;;0.97;;
75044;SDS011;63614;56.026;35.960;2023-03-12T09:00:52;1.73;;;0.90;;
75044;SDS011;63614;56.026;35.960;2023-03-12T09:03:19;1.80;;;1.10;;
75044;SDS011;63614;56.026;35.960;2023-03-12T09:05:46;1.52;;;1.02;;
75044;SDS011;63614;56.026;35.960;2023-03-12T09:08:12;3.73;;;1.20;;
75044;SDS011;63614;56.026;35.960;2023-03-12T09:10:38;5.50;;;1.10;;
75044;SDS011;63614;56.026;35.960;2023-03-12T09:13:05;1.80;;;1.30;;
75044;SDS011;63614;56.026;35.960;2023-03-12T09:15:31;4.47;;;1.08;;
75044;SDS011;63614;56.026;35.960;2023-03-12T09:17:57;1.75;;;1.05;;
75044;SDS011;63614;56.026;35.960;2023-03-12T09:20:23;1.85;;;1.13;;
75044;SDS011;63614;56.026;35.960;2023-03-12T09:22:50;1.67;;;1.00;;
75044;SDS011;63614;56.026;35.960;2023-03-12T09:25:16;1.70;;;1.10;;
75044;SDS011;63614;56.026;35.960;2023-03-12T09:27:44;2.08;;;1.30;;
75044;SDS011;63614;56.026;35.960;2023-03-12T09:30:12;2.10;;;1.38;;
75044;SDS011;63614;56.026;35.960;2023-03-12T09:32:40;2.20;;;1.50;;
75044;SDS011;63614;56.026;35.960;2023-03-12T09:35:06;2.55;;;1.35;;
75044;SDS011;63614;56.026;35.960;2023-03-12T09:37:33;2.75;;;1.45;;
75044;SDS011;63614;56.026;35.960;2023-03-12T09:39:59;2.28;;;1.40;;
75044;SDS011;63614;56.026;35.960;2023-03-12T09:42:29;1.85;;;1.20;;
75044;SDS011;63614;56.026;35.960;2023-03-12T09:45:04;5.05;;;1.30;;
75044;SDS011;63614;56.026;35.960;2023-03-12T09:47:35;2.28;;;1.50;;
75044;SDS011;63614;56.026;35.960;2023-03-12T09:50:19;4.30;;;2.38;;
75044;SDS011;63614;56.026;35.960;2023-03-12T09:55:18;3.15;;;1.48;;
75044;SDS011;63614;56.026;35.960;2023-03-12T09:57:47;1.50;;;1.10;;
75044;SDS011;63614;56.026;35.960;2023-03-12T10:00:16;2.97;;;1.42;;
75044;SDS011;63614;56.026;35.960;2023-03-12T10:10:34;2.58;;;1.50;;
75044;SDS011;63614;56.026;35.960;2023-03-12T10:16:14;1.80;;;1.33;;
75044;SDS011;63614;56.026;35.960;2023-03-12T10:22:06;1.98;;;1.40;;
75044;SDS011;63614;56.026;35.960;2023-03-12T10:27:51;1.88;;;1.30;;
75044;SDS011;63614;56.026;35.960;2023-03-12T10:30:20;2.08;;;1.58;;
75044;SDS011;63614;56.026;35.960;2023-03-12T10:32:58;2.10;;;1.40;;
75044;SDS011;63614;56.026;35.960;2023-03-12T10:35:28;1.77;;;1.30;;
75044;SDS011;63614;56.026;35.960;2023-03-12T10:37:58;2.20;;;1.65;;
75044;SDS011;63614;56.026;35.960;2023-03-12T10:40:26;2.40;;;1.63;;
75044;SDS011;63614;56.026;35.960;2023-03-12T10:43:01;2.92;;;1.55;;
75044;SDS011;63614;56.026;35.960;2023-03-12T10:45:30;2.42;;;1.73;;
75044;SDS011;63614;56.026;35.960;2023-03-12T10:48:01;5.63;;;1.50;;
75044;SDS011;63614;56.026;35.960;2023-03-12T10:50:32;2.28;;;1.40;;
75044;SDS011;63614;56.026;35.960;2023-03-12T10:53:15;2.20;;;1.63;;
75044;SDS011;63614;56.026;35.960;2023-03-12T10:58:36;3.08;;;1.90;;
75044;SDS011;63614;56.026;35.960;2023-03-12T11:01:27;2.58;;;1.70;;
75044;SDS011;63614;56.026;35.960;2023-03-12T11:12:33;2.10;;;1.55;;
75044;SDS011;63614;56.026;35.960;2023-03-12T11:15:19;2.53;;;1.48;;
75044;SDS011;63614;56.026;35.960;2023-03-12T11:20:40;2.15;;;1.50;;
75044;SDS011;63614;56.026;35.960;2023-03-12T11:23:12;1.98;;;1.25;;
75044;SDS011;63614;56.026;35.960;2023-03-12T11:25:39;2.25;;;1.35;;
75044;SDS011;63614;56.026;35.960;2023-03-12T11:28:05;2.03;;;1.52;;
75044;SDS011;63614;56.026;35.960;2023-03-12T11:30:41;2.22;;;1.50;;
75044;SDS011;63614;56.026;35.960;2023-03-12T11:33:09;2.42;;;1.60;;
75044;SDS011;63614;56.026;35.960;2023-03-12T11:38:17;2.80;;;1.50;;
75044;SDS011;63614;56.026;35.960;2023-03-12T11:40:55;2.60;;;1.60;;
75044;SDS011;63614;56.026;35.960;2023-03-12T11:43:39;4.28;;;1.98;;
75044;SDS011;63614;56.026;35.960;2023-03-12T12:00:25;2.50;;;1.77;;
75044;SDS011;63614;56.026;35.960;2023-03-12T12:11:27;2.35;;;1.65;;
75044;SDS011;63614;56.026;35.960;2023-03-12T12:27:35;3.20;;;2.03;;
75044;SDS011;63614;56.026;35.960;2023-03-12T12:35:39;3.03;;;2.00;;
75044;SDS011;63614;56.026;35.960;2023-03-12T12:41:14;3.35;;;2.20;;
75044;SDS011;63614;56.026;35.960;2023-03-12T12:43:48;3.20;;;2.00;;
75044;SDS011;63614;56.026;35.960;2023-03-12T12:46:28;5.82;;;2.10;;
75044;SDS011;63614;56.026;35.960;2023-03-12T12:49:02;4.00;;;1.70;;
75044;SDS011;63614;56.026;35.960;2023-03-12T12:51:59;4.45;;;2.33;;
75044;SDS011;63614;56.026;35.960;2023-03-12T12:57:17;3.70;;;2.45;;
75044;SDS011;63614;56.026;35.960;2023-03-12T13:02:37;2.97;;;2.10;;
75044;SDS011;63614;56.026;35.960;2023-03-12T13:05:27;4.72;;;2.65;;
75044;SDS011;63614;56.026;35.960;2023-03-12T13:07:53;4.40;;;2.60;;
75044;SDS011;63614;56.026;35.960;2023-03-12T13:10:37;4.05;;;2.70;;
75044;SDS011;63614;56.026;35.960;2023-03-12T13:21:40;3.55;;;2.30;;
75044;SDS011;63614;56.026;35.960;2023-03-12T13:29:44;4.25;;;2.90;;
75044;SDS011;63614;56.026;35.960;2023-03-12T13:46:06;4.93;;;3.00;;
75044;SDS011;63614;56.026;35.960;2023-03-12T13:48:45;5.07;;;3.30;;
75044;SDS011;63614;56.026;35.960;2023-03-12T13:51:17;6.68;;;3.53;;
75044;SDS011;63614;56.026;35.960;2023-03-12T13:53:47;4.05;;;3.17;;
75044;SDS011;63614;56.026;35.960;2023-03-12T13:56:17;6.55;;;3.58;;
75044;SDS011;63614;56.026;35.960;2023-03-12T14:01:29;6.65;;;4.10;;
75044;SDS011;63614;56.026;35.960;2023-03-12T14:04:07;4.57;;;3.45;;
75044;SDS011;63614;56.026;35.960;2023-03-12T14:06:53;5.35;;;3.42;;
75044;SDS011;63614;56.026;35.960;2023-03-12T14:18:21;6.55;;;3.85;;
75044;SDS011;63614;56.026;35.960;2023-03-12T14:20:59;7.80;;;4.13;;
75044;SDS011;63614;56.026;35.960;2023-03-12T14:23:35;5.38;;;3.47;;
75044;SDS011;63614;56.026;35.960;2023-03-12T14:26:04;5.97;;;3.83;;
75044;SDS011;63614;56.026;35.960;2023-03-12T14:28:31;6.03;;;4.00;;
75044;SDS011;63614;56.026;35.960;2023-03-12T14:31:15;4.30;;;3.13;;
75044;SDS011;63614;56.026;35.960;2023-03-12T14:36:24;4.07;;;2.78;;
75044;SDS011;63614;56.026;35.960;2023-03-12T14:38:57;5.88;;;3.40;;
75044;SDS011;63614;56.026;35.960;2023-03-12T14:41:34;5.78;;;2.63;;
75044;SDS011;63614;56.026;35.960;2023-03-12T14:44:19;4.45;;;2.88;;
75044;SDS011;63614;56.026;35.960;2023-03-12T14:46:58;3.92;;;2.45;;
75044;SDS011;63614;56.026;35.960;2023-03-12T14:49:37;4.88;;;2.85;;
75044;SDS011;63614;56.026;35.960;2023-03-12T14:52:12;4.55;;;3.28;;
75044;SDS011;63614;56.026;35.960;2023-03-12T14:54:39;4.88;;;3.13;;
75044;SDS011;63614;56.026;35.960;2023-03-12T14:57:19;6.82;;;3.60;;
75044;SDS011;63614;56.026;35.960;2023-03-12T14:59:55;6.78;;;3.35;;
75044;SDS011;63614;56.026;35.960;2023-03-12T15:02:23;4.78;;;3.15;;
75044;SDS011;63614;56.026;35.960;2023-03-12T15:04:51;5.85;;;3.40;;
75044;SDS011;63614;56.026;35.960;2023-03-12T15:07:41;4.82;;;3.17;;
75044;SDS011;63614;56.026;35.960;2023-03-12T15:10:14;4.88;;;3.20;;
75044;SDS011;63614;56.026;35.960;2023-03-12T15:12:44;3.92;;;2.92;;
75044;SDS011;63614;56.026;35.960;2023-03-12T15:15:22;4.45;;;3.03;;
75044;SDS011;63614;56.026;35.960;2023-03-12T15:17:50;4.85;;;3.28;;
75044;SDS011;63614;56.026;35.960;2023-03-12T15:20:16;4.55;;;3.03;;
75044;SDS011;63614;56.026;35.960;2023-03-12T15:22:43;5.47;;;3.38;;
75044;SDS011;63614;56.026;35.960;2023-03-12T15:25:25;4.10;;;3.03;;
75044;SDS011;63614;56.026;35.960;2023-03-12T15:28:38;4.38;;;2.72;;
75044;SDS011;63614;56.026;35.960;2023-03-12T15:31:02;5.70;;;3.50;;
75044;SDS011;63614;56.026;35.960;2023-03-12T15:33:30;3.30;;;2.25;;
75044;SDS011;63614;56.026;35.960;2023-03-12T15:41:50;3.63;;;2.30;;
75044;SDS011;63614;56.026;35.960;2023-03-12T15:44:28;4.13;;;2.38;;
75044;SDS011;63614;56.026;35.960;2023-03-12T15:47:10;4.70;;;2.30;;
75044;SDS011;63614;56.026;35.960;2023-03-12T15:49:39;4.25;;;2.45;;
75044;SDS011;63614;56.026;35.960;2023-03-12T15:57:29;4.07;;;2.40;;
75044;SDS011;63614;56.026;35.960;2023-03-12T16:03:17;4.00;;;2.63;;
75044;SDS011;63614;56.026;35.960;2023-03-12T16:05:45;3.90;;;2.28;;
75044;SDS011;63614;56.026;35.960;2023-03-12T16:08:13;4.03;;;2.55;;
75044;SDS011;63614;56.026;35.960;2023-03-12T16:10:39;4.97;;;2.33;;
75044;SDS011;63614;56.026;35.960;2023-03-12T16:13:05;3.83;;;2.25;;
75044;SDS011;63614;56.026;35.960;2023-03-12T16:15:32;3.17;;;2.22;;
75044;SDS011;63614;56.026;35.960;2023-03-12T16:18:02;3.67;;;2.45;;
75044;SDS011;63614;56.026;35.960;2023-03-12T16:20:28;3.30;;;1.98;;
75044;SDS011;63614;56.026;35.960;2023-03-12T16:22:54;8.43;;;2.40;;
75044;SDS011;63614;56.026;35.960;2023-03-12T16:25:20;3.88;;;2.25;;
75044;SDS011;63614;56.026;35.960;2023-03-12T16:27:48;4.85;;;2.35;;
75044;SDS011;63614;56.026;35.960;2023-03-12T16:30:21;5.05;;;2.42;;
75044;SDS011;63614;56.026;35.960;2023-03-12T16:32:51;4.93;;;2.20;;
75044;SDS011;63614;56.026;35.960;2023-03-12T16:35:18;3.95;;;2.30;;
75044;SDS011;63614;56.026;35.960;2023-03-12T16:37:45;4.35;;;2.25;;
75044;SDS011;63614;56.026;35.960;2023-03-12T16:40:11;4.22;;;2.22;;
75044;SDS011;63614;56.026;35.960;2023-03-12T16:42:40;4.25;;;2.30;;
75044;SDS011;63614;56.026;35.960;2023-03-12T16:45:10;4.80;;;2.10;;
75044;SDS011;63614;56.026;35.960;2023-03-12T16:47:38;3.65;;;2.28;;
75044;SDS011;63614;56.026;35.960;2023-03-12T16:50:18;4.18;;;2.25;;
75044;SDS011;63614;56.026;35.960;2023-03-12T16:52:47;2.90;;;1.85;;
75044;SDS011;63614;56.026;35.960;2023-03-12T16:55:17;2.88;;;1.80;;
75044;SDS011;63614;56.026;35.960;2023-03-12T16:57:49;2.42;;;1.88;;
75044;SDS011;63614;56.026;35.960;2023-03-12T17:00:18;3.60;;;2.35;;
75044;SDS011;63614;56.026;35.960;2023-03-12T17:02:47;3.47;;;1.92;;
75044;SDS011;63614;56.026;35.960;2023-03-12T17:05:14;3.47;;;2.10;;
75044;SDS011;63614;56.026;35.960;2023-03-12T17:07:40;4.72;;;1.90;;
75044;SDS011;63614;56.026;35.960;2023-03-12T17:10:08;3.03;;;2.20;;
75044;SDS011;63614;56.026;35.960;2023-03-12T17:12:44;2.97;;;1.90;;
75044;SDS011;63614;56.026;35.960;2023-03-12T17:15:12;3.35;;;2.05;;
75044;SDS011;63614;56.026;35.960;2023-03-12T17:17:44;2.65;;;1.70;;
75044;SDS011;63614;56.026;35.960;2023-03-12T17:20:12;3.28;;;2.00;;
75044;SDS011;63614;56.026;35.960;2023-03-12T17:22:39;8.13;;;2.20;;